Time;durP1;ratioP1;P1;durP2;ratioP2;P2;SDS_P1;SDS_P2;PMS_P1;PMS_P2;Temp;Humidity;BMP_temperature;BMP_pressure;BME280_temperature;BME280_humidity;BME280_pressure;Samples;Min_cycle;Max_cycle;Signal;HPM_P1;HPM_P2
2021/10/02 00:01:36;;;;;;;1.42;1.17;;;17.80;65.80;;;;;;5033108;28;20175;-78
2021/10/02 00:01:41;;;;;;;1.20;1.10;;;17.80;65.90;;;;;;5032796;28;20187;-78
2021/10/02 00:01:48;;;;;;;1.13;1.02;;;17.80;65.80;;;;;;5039317;28;20172;-75
2021/10/02 00:47:01;;;;;;;1.35;1.08;;;17.70;66.00;;;;;;5034841;28;20206;-76
2021/10/02 00:49:27;;;;;;;2.40;1.02;;;17.70;66.00;;;;;;5035645;28;20215;-76
2021/10/02 00:51:52;;;;;;;2.35;1.20;;;17.70;66.00;;;;;;5034264;28;20176;-77
2021/10/02 00:54:18;;;;;;;1.20;0.90;;;17.70;66.00;;;;;;5036377;28;20230;-77
2021/10/02 00:56:43;;;;;;;1.23;1.10;;;17.70;66.00;;;;;;5036265;28;20191;-77
2021/10/02 00:59:09;;;;;;;1.88;1.00;;;17.70;66.00;;;;;;5035546;28;20592;-78
2021/10/02 01:01:42;;;;;;;0.90;0.90;;;17.70;66.00;;;;;;5035218;28;20259;-73
2021/10/02 01:04:45;;;;;;;1.45;1.30;;;17.70;66.00;;;;;;5034174;28;20235;-74
2021/10/02 01:07:48;;;;;;;2.13;1.20;;;17.70;66.10;;;;;;5035205;28;20317;-74
2021/10/02 01:11:05;;;;;;;2.10;1.15;;;17.70;66.00;;;;;;5034711;28;20219;-75
2021/10/02 01:13:42;;;;;;;2.33;1.15;;;17.70;66.00;;;;;;5024719;28;20180;-76
2021/10/02 01:16:19;;;;;;;1.00;0.93;;;17.70;66.00;;;;;;5033258;28;20184;-76
2021/10/02 01:19:05;;;;;;;1.83;1.00;;;17.70;66.00;;;;;;5035963;28;20171;-77
2021/10/02 01:22:08;;;;;;;1.27;1.05;;;17.70;66.10;;;;;;5034364;28;20225;-76
2021/10/02 01:24:54;;;;;;;3.35;1.10;;;17.70;66.10;;;;;;5034980;28;20560;-77
2021/10/02 01:28:03;;;;;;;1.95;1.02;;;17.70;66.10;;;;;;5033954;28;20638;-75
2021/10/02 01:33:06;;;;;;;1.30;0.85;;;17.70;66.10;;;;;;5035613;28;20258;-76
2021/10/02 01:35:43;;;;;;;1.38;1.27;;;17.70;66.10;;;;;;5034352;28;20634;-78
2021/10/02 01:49:06;;;;;;;0.95;0.85;;;17.70;66.10;;;;;;5033617;28;20237;-76
2021/10/02 01:51:31;;;;;;;1.10;1.00;;;17.70;66.10;;;;;;5032970;28;20180;-77
2021/10/02 01:53:57;;;;;;;1.27;1.05;;;17.70;66.20;;;;;;5033656;28;20580;-77
2021/10/02 01:56:22;;;;;;;0.93;0.70;;;17.70;66.10;;;;;;5033798;28;20191;-78
2021/10/02 01:58:48;;;;;;;1.10;0.90;;;17.70;66.10;;;;;;5033527;28;20204;-73
2021/10/02 02:01:13;;;;;;;2.65;1.30;;;17.70;66.10;;;;;;5034566;28;20177;-74
2021/10/02 02:03:40;;;;;;;1.10;1.00;;;17.60;66.00;;;;;;5033143;28;20184;-72
2021/10/02 02:06:06;;;;;;;1.88;1.00;;;17.70;66.10;;;;;;5032476;28;20221;-77
2021/10/02 02:08:31;;;;;;;1.00;0.90;;;17.70;66.10;;;;;;5033398;28;20200;-77
2021/10/02 02:10:57;;;;;;;1.25;1.15;;;17.70;66.20;;;;;;5033224;28;20176;-76
2021/10/02 02:13:23;;;;;;;1.27;1.10;;;17.70;66.10;;;;;;5032252;28;20188;-74
2021/10/02 02:15:51;;;;;;;0.95;0.90;;;17.60;66.00;;;;;;5032783;28;20195;-73
2021/10/02 02:18:20;;;;;;;1.30;1.20;;;17.70;66.10;;;;;;5032293;28;20317;-77
2021/10/02 02:21:04;;;;;;;1.60;1.17;;;17.60;66.00;;;;;;5034010;28;20171;-77
2021/10/02 02:23:30;;;;;;;1.02;0.93;;;17.60;66.10;;;;;;5033319;28;20310;-76
2021/10/02 02:25:58;;;;;;;1.15;1.05;;;17.60;66.20;;;;;;5033425;28;20741;-77
2021/10/02 02:28:25;;;;;;;1.27;1.17;;;17.60;66.20;;;;;;5033896;28;20286;-76
2021/10/02 02:30:51;;;;;;;1.92;1.27;;;17.60;66.20;;;;;;5033755;28;20233;-74
2021/10/02 02:33:16;;;;;;;1.42;0.98;;;17.60;66.20;;;;;;5032418;28;20175;-76
2021/10/02 02:35:43;;;;;;;1.20;1.10;;;17.60;66.10;;;;;;5036170;28;20274;-78
2021/10/02 02:38:08;;;;;;;1.10;1.00;;;17.60;66.20;;;;;;5035173;28;20183;-78
2021/10/02 02:40:34;;;;;;;1.25;0.95;;;17.60;66.20;;;;;;5034674;28;20175;-76
2021/10/02 02:42:59;;;;;;;1.25;1.15;;;17.60;66.40;;;;;;5033337;28;20172;-76
2021/10/02 02:45:25;;;;;;;1.13;1.02;;;17.70;66.30;;;;;;5034659;28;20171;-77
2021/10/02 02:48:02;;;;;;;0.98;0.90;;;17.60;66.20;;;;;;5034308;28;20172;-77
2021/10/02 02:50:46;;;;;;;1.20;1.00;;;17.60;66.20;;;;;;5034319;28;20191;-75
2021/10/02 02:53:25;;;;;;;1.20;1.10;;;17.60;66.20;;;;;;5033061;28;20229;-78
2021/10/02 02:55:56;;;;;;;2.08;1.42;;;17.60;66.20;;;;;;5034510;28;20541;-77
2021/10/02 02:58:23;;;;;;;1.92;1.23;;;17.60;66.20;;;;;;5032645;28;20183;-78
2021/10/02 03:00:56;;;;;;;1.20;1.00;;;17.60;66.20;;;;;;5032259;28;20191;-77
2021/10/02 03:03:27;;;;;;;3.75;1.05;;;17.60;66.20;;;;;;5034333;28;20180;-77
2021/10/02 03:05:54;;;;;;;1.25;1.00;;;17.60;66.20;;;;;;5031969;28;20176;-75
2021/10/02 03:08:19;;;;;;;1.48;1.23;;;17.60;66.20;;;;;;5031370;28;20270;-77
2021/10/02 03:10:50;;;;;;;1.25;0.95;;;17.60;66.20;;;;;;5033025;28;20184;-77
2021/10/02 03:13:18;;;;;;;1.00;0.98;;;17.60;66.20;;;;;;5032020;28;20176;-73
2021/10/02 03:15:44;;;;;;;1.48;1.38;;;17.60;66.30;;;;;;5031195;28;20168;-75
2021/10/02 03:18:10;;;;;;;1.40;1.30;;;17.60;66.30;;;;;;5031468;28;20175;-76
2021/10/02 03:20:37;;;;;;;1.48;1.20;;;17.60;66.30;;;;;;5032443;28;20179;-78
2021/10/02 03:23:02;;;;;;;1.08;1.02;;;17.60;66.30;;;;;;5030882;28;20234;-77
2021/10/02 03:25:29;;;;;;;1.23;1.13;;;17.60;66.30;;;;;;5031965;28;20179;-75
2021/10/02 03:27:55;;;;;;;1.20;1.10;;;17.60;66.20;;;;;;5031788;28;20180;-76
2021/10/02 03:30:20;;;;;;;1.70;1.13;;;17.60;66.30;;;;;;5032286;28;20700;-73
2021/10/02 03:32:46;;;;;;;1.73;1.10;;;17.60;66.30;;;;;;5032149;28;20175;-77
2021/10/02 03:35:11;;;;;;;1.05;0.95;;;17.60;66.30;;;;;;5031936;28;20179;-76
2021/10/02 03:37:37;;;;;;;1.35;1.08;;;17.60;66.30;;;;;;5032532;28;20305;-77
2021/10/02 03:40:05;;;;;;;1.77;1.30;;;17.60;66.30;;;;;;5032604;28;20184;-78
2021/10/02 03:42:31;;;;;;;1.10;1.10;;;17.60;66.30;;;;;;5032993;28;20644;-78
2021/10/02 03:44:56;;;;;;;2.08;1.20;;;17.60;66.30;;;;;;5032446;28;20270;-74
2021/10/02 03:47:22;;;;;;;1.38;1.15;;;17.60;66.30;;;;;;5033988;28;20218;-78
2021/10/02 03:49:48;;;;;;;1.27;1.17;;;17.60;66.30;;;;;;5031954;28;20200;-77
2021/10/02 03:52:14;;;;;;;1.70;1.60;;;17.60;66.30;;;;;;5033189;28;20558;-77
2021/10/02 03:54:40;;;;;;;1.55;1.10;;;17.60;66.40;;;;;;5032895;28;20618;-78
2021/10/02 03:57:06;;;;;;;1.42;1.00;;;17.60;66.30;;;;;;5034877;28;20215;-78
2021/10/02 03:59:31;;;;;;;1.35;1.25;;;17.60;66.30;;;;;;5033189;28;20176;-74
2021/10/02 04:01:57;;;;;;;1.15;1.10;;;17.60;66.30;;;;;;5032369;28;20663;-78
2021/10/02 04:04:22;;;;;;;2.30;1.40;;;17.60;66.40;;;;;;5031950;28;20199;-78
2021/10/02 04:06:49;;;;;;;2.65;1.27;;;17.60;66.30;;;;;;5032619;28;20176;-79
2021/10/02 04:09:15;;;;;;;1.33;1.23;;;17.60;66.30;;;;;;5033058;28;20243;-77
2021/10/02 04:11:40;;;;;;;1.30;1.20;;;17.60;66.40;;;;;;5033552;28;20207;-76
2021/10/02 04:14:06;;;;;;;1.30;1.20;;;17.60;66.40;;;;;;5034881;28;20195;-75
2021/10/02 04:16:31;;;;;;;1.50;1.40;;;17.60;66.40;;;;;;5036507;28;20183;-78
2021/10/02 04:18:57;;;;;;;1.60;1.50;;;17.50;66.40;;;;;;5035517;28;20171;-78
2021/10/02 04:21:23;;;;;;;1.00;1.00;;;17.60;66.40;;;;;;5037231;28;20627;-79
2021/10/02 04:23:48;;;;;;;1.35;1.25;;;17.50;66.40;;;;;;5036887;28;20219;-78
2021/10/02 04:26:14;;;;;;;1.33;1.23;;;17.50;66.40;;;;;;5035994;28;20182;-79
2021/10/02 04:28:39;;;;;;;1.45;1.23;;;17.60;66.50;;;;;;5036603;28;20250;-74
2021/10/02 04:31:05;;;;;;;1.88;1.35;;;17.60;66.40;;;;;;5035944;28;20172;-77
2021/10/02 04:33:31;;;;;;;1.00;1.00;;;17.50;66.40;;;;;;5036970;28;20176;-79
2021/10/02 04:35:56;;;;;;;1.30;1.20;;;17.60;66.40;;;;;;5036977;28;20666;-78
2021/10/02 04:38:22;;;;;;;1.52;1.35;;;17.60;66.50;;;;;;5036282;28;20179;-77
2021/10/02 04:40:47;;;;;;;1.27;1.17;;;17.50;66.50;;;;;;5035349;28;20645;-79
2021/10/02 04:43:13;;;;;;;1.33;1.20;;;17.50;66.40;;;;;;5035689;28;20228;-77
2021/10/02 04:45:38;;;;;;;1.30;1.20;;;17.50;66.50;;;;;;5036899;28;20179;-76
2021/10/02 04:48:05;;;;;;;1.10;1.10;;;17.50;66.40;;;;;;5035269;28;20175;-78
2021/10/02 04:50:32;;;;;;;1.45;1.27;;;17.50;66.40;;;;;;5036981;28;20615;-76
2021/10/02 04:52:58;;;;;;;1.52;1.42;;;17.50;66.50;;;;;;5035068;28;20210;-79
2021/10/02 04:55:23;;;;;;;2.05;1.55;;;17.50;66.50;;;;;;5036145;28;20179;-78
2021/10/02 04:57:49;;;;;;;1.30;1.20;;;17.50;66.50;;;;;;5035513;28;20626;-75
2021/10/02 05:00:14;;;;;;;1.70;1.60;;;17.50;66.50;;;;;;5036300;28;20690;-75
2021/10/02 05:02:40;;;;;;;2.97;1.30;;;17.50;66.50;;;;;;5035465;28;20234;-77
2021/10/02 05:05:06;;;;;;;1.50;1.40;;;17.50;66.50;;;;;;5035318;28;20176;-77
2021/10/02 05:07:31;;;;;;;2.60;1.65;;;17.50;66.60;;;;;;5034875;28;20176;-77
2021/10/02 05:09:57;;;;;;;1.73;1.50;;;17.50;66.50;;;;;;5035424;28;20561;-78
2021/10/02 05:12:22;;;;;;;1.98;1.75;;;17.50;66.60;;;;;;5035419;28;20179;-76
2021/10/02 05:14:48;;;;;;;1.30;1.20;;;17.60;66.80;;;;;;5034348;28;20179;-76
2021/10/02 05:17:15;;;;;;;1.73;1.50;;;17.60;67.50;;;;;;5035133;28;20239;-78
2021/10/02 05:19:40;;;;;;;1.73;1.63;;;17.60;66.70;;;;;;5038336;28;20286;-79
2021/10/02 05:22:06;;;;;;;1.90;1.52;;;17.70;66.70;;;;;;5035203;28;20172;-77
2021/10/02 05:24:36;;;;;;;1.67;1.50;;;17.70;66.60;;;;;;5038939;28;20514;-78
2021/10/02 05:27:06;;;;;;;1.40;1.17;;;17.70;66.70;;;;;;5034847;28;20657;-70
2021/10/02 05:29:32;;;;;;;1.80;1.70;;;17.70;66.60;;;;;;5034196;28;20330;-66
2021/10/02 05:31:57;;;;;;;2.80;1.63;;;17.70;66.80;;;;;;5034579;28;20258;-66
2021/10/02 05:34:23;;;;;;;3.50;1.58;;;17.70;66.80;;;;;;5035110;28;20184;-65
2021/10/02 05:36:48;;;;;;;3.50;1.60;;;17.70;66.70;;;;;;5034101;28;20179;-74
2021/10/02 05:39:14;;;;;;;1.83;1.73;;;17.70;66.80;;;;;;5034752;28;20180;-76
2021/10/02 05:41:39;;;;;;;2.75;1.70;;;17.70;66.80;;;;;;5035369;28;20237;-70
2021/10/02 05:44:05;;;;;;;6.07;1.60;;;17.70;67.10;;;;;;5033715;28;20172;-69
2021/10/02 05:46:30;;;;;;;2.40;1.70;;;17.70;67.20;;;;;;5034563;28;20167;-68
2021/10/02 05:48:56;;;;;;;3.05;1.55;;;17.70;67.10;;;;;;5034118;28;20542;-69
2021/10/02 05:51:24;;;;;;;2.28;1.77;;;17.80;67.20;;;;;;5034002;28;20172;-66
2021/10/02 05:53:50;;;;;;;4.53;2.15;;;17.80;67.30;;;;;;5033021;28;20638;-71
2021/10/02 05:56:15;;;;;;;5.32;2.42;;;17.80;67.30;;;;;;5033951;28;20241;-70
2021/10/02 05:58:41;;;;;;;4.43;2.00;;;17.90;67.30;;;;;;5034610;28;20619;-70
2021/10/02 06:01:06;;;;;;;6.00;1.95;;;17.80;67.30;;;;;;5034015;28;20171;-72
2021/10/02 06:03:32;;;;;;;5.07;1.83;;;17.80;67.30;;;;;;5033571;28;20218;-71
2021/10/02 06:06:00;;;;;;;4.45;1.85;;;17.80;67.30;;;;;;5034186;28;20180;-71
2021/10/02 06:08:29;;;;;;;2.05;1.88;;;17.80;67.30;;;;;;5034391;28;20171;-71
2021/10/02 06:10:54;;;;;;;3.50;2.00;;;17.80;67.30;;;;;;5033298;28;20176;-71
2021/10/02 06:13:21;;;;;;;2.63;1.95;;;17.80;67.20;;;;;;5034259;28;20210;-69
2021/10/02 06:15:46;;;;;;;2.67;2.08;;;17.80;67.20;;;;;;5034099;28;20366;-70
2021/10/02 06:18:12;;;;;;;4.32;2.10;;;17.80;67.30;;;;;;5032995;28;20711;-69
2021/10/02 06:20:37;;;;;;;3.35;1.70;;;17.80;67.30;;;;;;5034148;28;20258;-70
2021/10/02 06:23:04;;;;;;;4.43;1.95;;;17.80;67.30;;;;;;5033490;28;20236;-72
2021/10/02 06:25:30;;;;;;;2.67;1.90;;;17.90;67.40;;;;;;5033298;28;20180;-70
2021/10/02 06:27:56;;;;;;;4.75;2.10;;;17.90;67.30;;;;;;5033497;28;20182;-68
2021/10/02 06:30:22;;;;;;;2.05;1.85;;;17.90;67.30;;;;;;5033616;28;20725;-69
2021/10/02 06:32:48;;;;;;;2.58;1.85;;;17.90;67.40;;;;;;5032981;28;20171;-70
2021/10/02 06:35:13;;;;;;;3.42;1.73;;;17.80;67.40;;;;;;5033056;28;20172;-69
2021/10/02 06:37:39;;;;;;;2.55;1.70;;;17.90;67.50;;;;;;5033508;28;20179;-71
2021/10/02 06:40:06;;;;;;;2.30;1.65;;;18.10;67.60;;;;;;5032674;28;20179;-69
2021/10/02 06:42:32;;;;;;;2.75;1.90;;;17.90;67.50;;;;;;5033450;28;20294;-72
2021/10/02 06:44:57;;;;;;;1.83;1.50;;;17.80;67.40;;;;;;5033102;28;20263;-72
2021/10/02 06:47:23;;;;;;;4.25;1.92;;;18.10;67.50;;;;;;5032619;28;20175;-69
2021/10/02 06:49:49;;;;;;;3.90;2.33;;;17.90;67.40;;;;;;5033309;28;20242;-71
2021/10/02 06:52:14;;;;;;;1.70;1.60;;;17.90;67.50;;;;;;5033536;28;20204;-71
2021/10/02 06:54:40;;;;;;;2.47;1.55;;;17.90;67.50;;;;;;5032908;28;20179;-70
2021/10/02 06:57:07;;;;;;;2.72;1.90;;;17.90;67.50;;;;;;5033234;28;20171;-71
2021/10/02 06:59:33;;;;;;;3.72;2.00;;;18.00;67.50;;;;;;5033230;28;20200;-69
2021/10/02 07:01:59;;;;;;;2.20;1.90;;;17.90;67.40;;;;;;5032755;28;20168;-70
2021/10/02 07:04:25;;;;;;;2.47;1.63;;;18.00;67.40;;;;;;5033315;28;20179;-71
2021/10/02 07:06:50;;;;;;;2.65;1.92;;;18.00;67.40;;;;;;5032276;28;20259;-70
2021/10/02 07:09:16;;;;;;;2.30;1.80;;;18.00;67.30;;;;;;5033112;28;20674;-72
2021/10/02 07:11:41;;;;;;;2.03;1.80;;;18.10;67.40;;;;;;5033001;28;20634;-70
2021/10/02 07:14:07;;;;;;;2.17;1.67;;;18.10;67.40;;;;;;5032099;28;20241;-70
2021/10/02 07:16:32;;;;;;;2.10;2.00;;;18.00;67.40;;;;;;5033099;28;20226;-71
2021/10/02 07:18:58;;;;;;;3.17;2.00;;;18.10;67.30;;;;;;5032715;28;20172;-71
2021/10/02 07:21:23;;;;;;;2.83;1.80;;;18.10;67.30;;;;;;5032424;28;20172;-70
2021/10/02 07:23:49;;;;;;;5.97;1.85;;;18.20;67.40;;;;;;5032432;28;20227;-68
2021/10/02 07:26:14;;;;;;;2.47;2.00;;;18.20;67.20;;;;;;5032804;28;20541;-69
2021/10/02 07:28:39;;;;;;;2.80;1.80;;;18.10;67.30;;;;;;5032098;28;20234;-67
2021/10/02 07:31:05;;;;;;;5.65;2.42;;;18.10;67.20;;;;;;5032709;28;20172;-68
2021/10/02 07:33:31;;;;;;;4.80;2.33;;;18.10;67.10;;;;;;5033038;28;20178;-68
2021/10/02 07:35:57;;;;;;;1.90;1.80;;;18.20;67.10;;;;;;5031838;28;20168;-69
2021/10/02 07:38:22;;;;;;;5.10;1.90;;;18.20;67.20;;;;;;5032794;28;20263;-72
2021/10/02 07:40:47;;;;;;;2.65;2.05;;;18.10;67.30;;;;;;5032540;28;20665;-73
2021/10/02 07:43:13;;;;;;;3.92;1.90;;;18.10;67.40;;;;;;5030561;28;20222;-70
2021/10/02 07:45:38;;;;;;;3.25;2.00;;;18.10;67.40;;;;;;5032800;28;20184;-70
2021/10/02 07:48:04;;;;;;;4.28;1.90;;;18.20;67.50;;;;;;5033972;28;20176;-69
2021/10/02 07:50:29;;;;;;;3.67;1.90;;;18.10;67.40;;;;;;5035908;28;20619;-69
2021/10/02 07:52:55;;;;;;;2.33;2.00;;;18.10;67.40;;;;;;5035301;28;20182;-67
2021/10/02 07:55:21;;;;;;;4.32;2.13;;;18.20;67.50;;;;;;5036595;28;20271;-68
2021/10/02 07:57:47;;;;;;;3.85;2.20;;;18.20;67.50;;;;;;5034741;28;20171;-68
2021/10/02 08:00:15;;;;;;;3.25;2.55;;;18.20;67.30;;;;;;5036858;28;20201;-68
2021/10/02 08:02:45;;;;;;;4.03;2.13;;;18.20;67.30;;;;;;5036589;28;20257;-69
2021/10/02 08:05:11;;;;;;;3.72;1.88;;;18.20;67.30;;;;;;5035783;28;20237;-68
2021/10/02 08:07:41;;;;;;;5.35;2.50;;;18.20;67.30;;;;;;5036497;28;20647;-68
2021/10/02 08:10:07;;;;;;;2.85;2.15;;;18.20;67.20;;;;;;5034454;28;20212;-66
2021/10/02 08:12:32;;;;;;;4.72;2.20;;;18.20;67.30;;;;;;5036670;28;20291;-67
2021/10/02 08:14:58;;;;;;;7.25;2.78;;;18.20;67.30;;;;;;5036313;28;20175;-71
2021/10/02 08:17:26;;;;;;;5.38;2.67;;;18.20;67.30;;;;;;5035619;28;20176;-72
2021/10/02 08:19:55;;;;;;;5.65;2.10;;;18.20;67.20;;;;;;5035045;28;20183;-72
2021/10/02 08:22:23;;;;;;;2.63;2.15;;;18.20;67.30;;;;;;5036041;28;20187;-71
2021/10/02 08:24:52;;;;;;;2.95;2.25;;;18.20;67.20;;;;;;5033939;28;20180;-74
2021/10/02 08:27:20;;;;;;;2.45;1.98;;;18.30;67.10;;;;;;5035157;28;20179;-67
2021/10/02 08:29:45;;;;;;;5.07;2.53;;;18.30;67.20;;;;;;5036718;28;20755;-67
2021/10/02 08:32:11;;;;;;;7.63;2.42;;;18.30;67.20;;;;;;5034163;28;20203;-69
2021/10/02 08:34:36;;;;;;;3.50;2.13;;;18.30;67.80;;;;;;5034936;28;20178;-72
2021/10/02 08:37:02;;;;;;;3.58;2.40;;;18.30;67.60;;;;;;5035644;28;20168;-72
2021/10/02 08:39:27;;;;;;;5.22;2.53;;;18.40;67.20;;;;;;5035170;28;20533;-71
2021/10/02 08:41:53;;;;;;;4.45;2.40;;;18.30;67.50;;;;;;5035814;28;20186;-73
2021/10/02 08:44:22;;;;;;;5.10;2.28;;;18.40;67.50;;;;;;5034814;28;20172;-72
2021/10/02 08:46:47;;;;;;;4.60;2.50;;;18.40;67.50;;;;;;5035041;28;20207;-73
2021/10/02 08:49:27;;;;;;;3.53;1.88;;;18.40;67.50;;;;;;5034546;28;20212;-69
2021/10/02 08:51:52;;;;;;;4.70;2.78;;;18.50;67.50;;;;;;5034471;28;20212;-69
2021/10/02 08:54:18;;;;;;;2.92;2.40;;;18.50;67.40;;;;;;5033731;28;20242;-69
2021/10/02 08:56:45;;;;;;;4.97;2.70;;;18.50;67.40;;;;;;5035799;28;20178;-69
2021/10/02 08:59:11;;;;;;;6.15;3.10;;;18.50;67.50;;;;;;5032456;28;20670;-69
2021/10/02 09:01:37;;;;;;;3.50;1.90;;;18.40;67.50;;;;;;5034286;28;20639;-69
2021/10/02 09:04:02;;;;;;;3.00;2.38;;;18.40;67.60;;;;;;5034038;28;20203;-69
2021/10/02 09:06:28;;;;;;;4.32;2.50;;;18.30;67.60;;;;;;5034834;28;20203;-69
2021/10/02 09:08:53;;;;;;;4.38;2.38;;;18.30;67.70;;;;;;5035273;28;20200;-65
2021/10/02 09:11:19;;;;;;;5.60;2.80;;;18.40;67.90;;;;;;5034254;28;20171;-75
2021/10/02 09:13:44;;;;;;;2.22;1.95;;;18.40;67.70;;;;;;5034101;28;20203;-74
2021/10/02 09:16:11;;;;;;;6.07;2.63;;;18.30;67.70;;;;;;5032561;28;20172;-73
2021/10/02 09:18:36;;;;;;;4.55;2.80;;;18.40;67.70;;;;;;5034597;28;20180;-71
2021/10/02 09:21:03;;;;;;;5.10;2.60;;;18.40;67.50;;;;;;5034227;28;20176;-73
2021/10/02 09:23:28;;;;;;;6.72;2.55;;;18.40;67.50;;;;;;5034953;28;20222;-73
2021/10/02 09:25:54;;;;;;;2.33;2.10;;;18.40;67.40;;;;;;5034821;28;20180;-67
2021/10/02 09:28:19;;;;;;;3.38;2.40;;;18.40;67.40;;;;;;5034340;28;20626;-69
2021/10/02 09:30:45;;;;;;;6.20;2.60;;;18.40;67.30;;;;;;5035231;28;20168;-69
2021/10/02 09:33:20;;;;;;;3.58;2.90;;;18.40;67.30;;;;;;5034709;28;20180;-69
2021/10/02 09:35:46;;;;;;;5.05;2.22;;;18.40;67.30;;;;;;5034060;28;20182;-69
2021/10/02 09:38:14;;;;;;;8.43;3.00;;;18.40;67.40;;;;;;5061627;28;20208;-69
2021/10/02 09:40:40;;;;;;;2.58;2.38;;;18.50;67.30;;;;;;5059395;28;20182;-71
2021/10/02 09:43:05;;;;;;;6.55;3.00;;;18.50;67.30;;;;;;5073934;28;20170;-71
2021/10/02 09:45:38;;;;;;;3.05;2.50;;;18.50;67.10;;;;;;5065051;28;20175;-70
2021/10/02 09:48:06;;;;;;;4.78;2.88;;;18.50;67.10;;;;;;5054294;28;20270;-70
2021/10/02 09:50:34;;;;;;;2.83;2.50;;;18.50;67.20;;;;;;5053984;28;20292;-70
2021/10/02 09:53:06;;;;;;;4.97;2.45;;;18.50;67.20;;;;;;5055045;28;20232;-70
2021/10/02 09:55:36;;;;;;;4.10;2.47;;;18.50;67.20;;;;;;5073950;28;20257;-70
2021/10/02 09:58:07;;;;;;;3.63;2.47;;;18.50;67.00;;;;;;5074171;28;20205;-69
2021/10/02 10:00:37;;;;;;;6.00;2.70;;;18.60;67.10;;;;;;5074227;28;20645;-69
2021/10/02 10:03:04;;;;;;;4.85;2.72;;;18.50;67.00;;;;;;5073455;28;20182;-69
2021/10/02 10:05:47;;;;;;;2.75;2.20;;;18.70;66.80;;;;;;5074173;28;20600;-70
2021/10/02 10:08:18;;;;;;;2.65;2.20;;;18.70;66.50;;;;;;5074338;28;20253;-70
2021/10/02 10:10:43;;;;;;;4.20;1.80;;;18.80;66.50;;;;;;5066903;28;20215;-69
2021/10/02 10:13:16;;;;;;;2.58;2.38;;;18.80;67.20;;;;;;5053755;28;20252;-69
2021/10/02 10:15:43;;;;;;;3.47;2.28;;;18.80;66.40;;;;;;5053900;28;20646;-69
2021/10/02 10:18:25;;;;;;;2.83;2.40;;;18.80;66.50;;;;;;5053072;28;20190;-69
2021/10/02 10:20:55;;;;;;;4.22;2.35;;;18.80;66.60;;;;;;5053540;28;20548;-70
2021/10/02 10:23:26;;;;;;;2.95;2.50;;;18.80;66.60;;;;;;5053595;28;20745;-69
2021/10/02 10:25:53;;;;;;;4.72;2.22;;;18.70;66.60;;;;;;5052973;28;20175;-69
2021/10/02 10:28:22;;;;;;;4.07;2.30;;;18.70;66.70;;;;;;5054022;28;20191;-69
2021/10/02 10:30:48;;;;;;;2.72;2.10;;;18.70;66.80;;;;;;5052785;28;20207;-68
2021/10/02 10:33:14;;;;;;;4.22;2.58;;;18.60;66.80;;;;;;5052789;28;20268;-69
2021/10/02 10:35:44;;;;;;;2.65;2.30;;;18.60;66.80;;;;;;5053668;28;20542;-69
2021/10/02 10:38:14;;;;;;;4.25;2.53;;;18.70;66.60;;;;;;5052412;28;20685;-71
2021/10/02 10:40:40;;;;;;;2.20;2.00;;;18.70;66.50;;;;;;5053703;28;20179;-71
2021/10/02 10:43:05;;;;;;;2.60;2.38;;;18.70;66.60;;;;;;5053351;28;20218;-70
2021/10/02 10:45:31;;;;;;;4.97;2.33;;;18.70;66.50;;;;;;5064228;28;20599;-70
2021/10/02 10:47:56;;;;;;;3.60;2.00;;;18.70;66.60;;;;;;5073186;28;20540;-73
2021/10/02 10:50:23;;;;;;;3.13;2.22;;;18.70;66.70;;;;;;5073507;28;20277;-76
2021/10/02 10:52:49;;;;;;;4.65;1.90;;;18.70;66.60;;;;;;5072421;28;20498;-75
2021/10/02 10:55:17;;;;;;;4.47;2.15;;;18.80;67.40;;;;;;5073389;28;20220;-76
2021/10/02 10:57:44;;;;;;;3.60;2.42;;;18.80;66.50;;;;;;5072376;28;20167;-73
2021/10/02 11:00:20;;;;;;;5.93;2.90;;;18.80;66.50;;;;;;5072564;28;20179;-78
2021/10/02 11:02:48;;;;;;;3.00;2.22;;;18.80;66.50;;;;;;5073108;28;20644;-77
2021/10/02 11:05:46;;;;;;;2.83;2.28;;;18.80;67.30;;;;;;5073251;28;20204;-75
2021/10/02 11:08:13;;;;;;;3.88;2.35;;;18.80;66.70;;;;;;5072982;28;20344;-77
2021/10/02 11:10:41;;;;;;;4.40;2.70;;;18.80;66.70;;;;;;5072997;28;20703;-65
2021/10/02 11:13:13;;;;;;;5.97;2.50;;;18.80;66.80;;;;;;5072014;28;20178;-65
2021/10/02 11:15:39;;;;;;;3.13;2.38;;;18.80;66.70;;;;;;5072897;28;20632;-65
2021/10/02 11:18:05;;;;;;;4.65;2.33;;;18.80;66.60;;;;;;5072867;28;20201;-66
2021/10/02 11:20:33;;;;;;;4.25;2.45;;;18.80;66.60;;;;;;5070984;28;20170;-67
2021/10/02 11:23:36;;;;;;;6.60;2.10;;;18.80;66.70;;;;;;5071914;28;20684;-73
2021/10/02 11:26:23;;;;;;;7.15;3.00;;;18.80;66.60;;;;;;5072419;28;20174;-72
2021/10/02 11:28:58;;;;;;;6.25;2.65;;;18.80;66.60;;;;;;5071955;28;20194;-72
2021/10/02 11:31:24;;;;;;;5.15;2.67;;;18.80;66.70;;;;;;5072929;28;20287;-71
2021/10/02 11:33:50;;;;;;;5.25;3.13;;;18.70;66.70;;;;;;5072352;28;20671;-72
2021/10/02 11:36:39;;;;;;;6.32;2.92;;;18.70;66.80;;;;;;5072346;28;20543;-72
2021/10/02 11:39:19;;;;;;;6.43;2.45;;;18.70;66.80;;;;;;5072706;28;20178;-73
2021/10/02 11:41:51;;;;;;;3.15;2.58;;;18.70;66.90;;;;;;5072138;28;20265;-74
2021/10/02 11:44:43;;;;;;;3.53;2.40;;;18.70;66.80;;;;;;5071312;28;20162;-74
2021/10/02 11:47:26;;;;;;;7.00;2.60;;;18.70;66.60;;;;;;5052534;28;20261;-74
2021/10/02 11:50:07;;;;;;;5.10;2.58;;;18.80;66.40;;;;;;5051698;28;20293;-70
2021/10/02 11:52:54;;;;;;;5.22;2.38;;;18.80;66.40;;;;;;5052533;28;20182;-69
2021/10/02 11:55:35;;;;;;;5.10;2.38;;;18.80;66.30;;;;;;5047802;28;20205;-70
2021/10/02 11:58:07;;;;;;;5.32;2.50;;;18.80;66.30;;;;;;5052305;28;20204;-70
2021/10/02 12:00:54;;;;;;;9.20;2.58;;;18.80;66.30;;;;;;5052448;28;20274;-70
2021/10/02 12:03:33;;;;;;;5.55;2.72;;;18.80;66.30;;;;;;5051896;28;20534;-70
2021/10/02 12:06:03;;;;;;;2.38;2.00;;;18.80;66.40;;;;;;5052400;28;20183;-71
2021/10/02 12:08:28;;;;;;;4.10;2.10;;;18.80;66.50;;;;;;5052427;28;20175;-70
2021/10/02 12:10:57;;;;;;;4.95;2.28;;;18.80;66.40;;;;;;5051414;28;20179;-70
2021/10/02 12:13:25;;;;;;;5.78;2.17;;;18.80;66.30;;;;;;5052207;28;20626;-70
2021/10/02 12:16:02;;;;;;;4.97;1.98;;;18.90;66.10;;;;;;5052206;28;20189;-71
2021/10/02 12:18:48;;;;;;;5.13;2.20;;;19.00;66.80;;;;;;5052277;28;20183;-71
2021/10/02 12:21:20;;;;;;;3.65;2.30;;;19.10;65.70;;;;;;5052386;28;20264;-72
2021/10/02 12:24:13;;;;;;;2.65;2.33;;;19.10;65.60;;;;;;5050297;28;20231;-71
2021/10/02 12:26:58;;;;;;;2.67;2.00;;;19.20;65.60;;;;;;5052596;28;20171;-71
2021/10/02 12:29:25;;;;;;;3.72;2.08;;;19.20;65.50;;;;;;5052174;28;20250;-69
2021/10/02 12:31:51;;;;;;;4.78;2.47;;;19.10;65.70;;;;;;5051416;28;20179;-70
2021/10/02 12:34:21;;;;;;;2.13;1.70;;;19.10;65.70;;;;;;5053906;28;20175;-70
2021/10/02 12:36:52;;;;;;;2.75;2.03;;;19.10;65.80;;;;;;5056127;28;20262;-70
2021/10/02 12:39:19;;;;;;;3.53;2.33;;;19.00;65.90;;;;;;5055301;28;20182;-71
2021/10/02 12:41:45;;;;;;;4.65;2.65;;;19.10;65.90;;;;;;5055842;28;20684;-71
2021/10/02 12:44:39;;;;;;;2.25;2.05;;;19.00;66.00;;;;;;5055774;28;20179;-71
2021/10/02 12:47:05;;;;;;;3.72;2.35;;;19.00;66.00;;;;;;5074342;28;20178;-71
2021/10/02 12:49:33;;;;;;;4.03;2.10;;;19.00;66.00;;;;;;5075441;28;20236;-70
2021/10/02 12:51:59;;;;;;;3.60;2.15;;;19.00;66.00;;;;;;5074906;28;20178;-71
2021/10/02 12:54:26;;;;;;;4.05;1.92;;;18.90;66.10;;;;;;5075759;28;20182;-70
2021/10/02 12:56:56;;;;;;;3.45;2.20;;;18.90;66.20;;;;;;5074354;28;20257;-71
2021/10/02 12:59:21;;;;;;;3.25;2.08;;;18.90;66.20;;;;;;5075076;28;20179;-70
2021/10/02 13:01:48;;;;;;;4.38;2.00;;;18.90;66.20;;;;;;5075412;28;20240;-70
2021/10/02 13:04:15;;;;;;;3.92;1.70;;;18.80;66.30;;;;;;5074537;28;20206;-70
2021/10/02 13:06:51;;;;;;;3.70;2.60;;;18.80;66.30;;;;;;5075093;28;20205;-70
2021/10/02 13:09:16;;;;;;;3.17;2.00;;;18.80;66.30;;;;;;5075232;28;20675;-71
2021/10/02 13:11:42;;;;;;;2.28;1.98;;;18.80;66.30;;;;;;5075353;28;20221;-70
2021/10/02 13:14:07;;;;;;;3.25;1.65;;;18.80;66.30;;;;;;5074453;28;20174;-70
2021/10/02 13:16:33;;;;;;;2.28;1.73;;;18.80;66.30;;;;;;5075434;28;20174;-70
2021/10/02 13:18:58;;;;;;;3.95;1.85;;;18.80;66.20;;;;;;5075116;28;20179;-71
2021/10/02 13:21:24;;;;;;;3.25;2.10;;;18.90;66.10;;;;;;5073100;28;20174;-72
2021/10/02 13:23:49;;;;;;;2.47;1.70;;;19.00;65.90;;;;;;5074643;28;20723;-71
2021/10/02 13:26:20;;;;;;;2.17;2.00;;;19.10;65.60;;;;;;5075173;28;20182;-71
2021/10/02 13:28:47;;;;;;;2.92;1.90;;;19.10;65.50;;;;;;5074182;28;20176;-70
2021/10/02 13:31:15;;;;;;;3.00;1.80;;;19.20;65.40;;;;;;5074815;28;20265;-69
2021/10/02 13:33:45;;;;;;;2.88;1.92;;;19.20;65.40;;;;;;5074387;28;20175;-70
2021/10/02 13:36:21;;;;;;;2.10;1.83;;;19.20;65.50;;;;;;5074529;28;20194;-70
2021/10/02 13:38:47;;;;;;;1.50;1.40;;;19.10;65.60;;;;;;5075033;28;20170;-71
2021/10/02 13:41:13;;;;;;;2.50;1.70;;;19.10;65.70;;;;;;5074234;28;20652;-72
2021/10/02 13:43:53;;;;;;;2.05;1.85;;;19.00;65.80;;;;;;5074634;28;20217;-71
2021/10/02 13:46:28;;;;;;;2.55;1.40;;;19.00;65.90;;;;;;5056158;28;20248;-71
2021/10/02 13:48:54;;;;;;;2.67;1.80;;;19.00;65.90;;;;;;5053715;28;20194;-71